Time;durP1;ratioP1;P1;durP2;ratioP2;P2;SDS_P1;SDS_P2;PMS_P1;PMS_P2;Temp;Humidity;BMP_temperature;BMP_pressure;BME280_temperature;BME280_humidity;BME280_pressure;Samples;Min_cycle;Max_cycle;Signal;HPM_P1;HPM_P2
2022/03/28 00:00:40;;;;;;;1.33;1.00;;;8.20;97.60;;;;;;6127269;29;20311;-84
2022/03/28 00:03:48;;;;;;;1.40;0.93;;;8.20;97.80;;;;;;6143676;29;20303;-84
2022/03/28 00:06:53;;;;;;;0.85;0.80;;;8.20;97.80;;;;;;6143906;29;20275;-84
2022/03/28 00:09:59;;;;;;;0.90;0.90;;;8.20;97.90;;;;;;6143781;29;20582;-85
2022/03/28 00:13:06;;;;;;;1.13;1.10;;;8.10;98.00;;;;;;6143920;29;20314;-85
2022/03/28 00:16:14;;;;;;;1.45;1.00;;;8.20;97.60;;;;;;6143441;29;20275;-84
2022/03/28 00:19:21;;;;;;;1.02;0.88;;;8.20;97.60;;;;;;6143437;29;20315;-85
2022/03/28 00:22:28;;;;;;;1.00;1.00;;;8.10;97.90;;;;;;6153587;29;20597;-84
2022/03/28 00:25:35;;;;;;;1.00;1.00;;;8.20;97.50;;;;;;6171212;29;20274;-84
2022/03/28 00:28:41;;;;;;;0.98;0.98;;;8.20;97.50;;;;;;6170445;28;20298;-84
2022/03/28 00:31:47;;;;;;;1.10;1.10;;;8.20;97.50;;;;;;6170890;29;20275;-84
2022/03/28 00:34:55;;;;;;;1.10;1.10;;;8.30;96.90;;;;;;6168932;29;20601;-84
2022/03/28 00:38:00;;;;;;;2.08;1.00;;;8.20;97.00;;;;;;6149087;29;20302;-84
2022/03/28 00:41:06;;;;;;;0.90;0.90;;;8.20;97.20;;;;;;6149921;29;20298;-84
2022/03/28 00:44:12;;;;;;;2.75;1.10;;;8.20;97.10;;;;;;6166700;29;20299;-85
2022/03/28 00:47:17;;;;;;;1.10;1.00;;;8.30;96.80;;;;;;6166536;29;20310;-84
2022/03/28 00:50:24;;;;;;;1.00;1.00;;;8.30;96.80;;;;;;6166771;29;20279;-84
2022/03/28 00:53:30;;;;;;;1.23;1.23;;;8.20;96.60;;;;;;6149549;29;20475;-84
2022/03/28 00:56:35;;;;;;;0.90;0.90;;;8.10;97.00;;;;;;6167077;29;20278;-84
2022/03/28 00:59:44;;;;;;;1.27;1.20;;;8.10;97.30;;;;;;6166199;28;20298;-84
2022/03/28 01:02:50;;;;;;;2.28;1.10;;;8.00;97.50;;;;;;6166246;29;20306;-84
2022/03/28 01:05:58;;;;;;;1.98;1.20;;;8.00;97.60;;;;;;6166621;29;20459;-84
2022/03/28 01:09:04;;;;;;;1.00;1.00;;;7.90;97.90;;;;;;6165542;28;20575;-85
2022/03/28 01:12:11;;;;;;;1.02;1.02;;;7.90;98.10;;;;;;6148881;29;20270;-84
2022/03/28 01:15:17;;;;;;;1.10;1.10;;;7.90;97.80;;;;;;6166178;29;20283;-84
2022/03/28 01:18:22;;;;;;;1.20;1.20;;;8.00;97.60;;;;;;6165745;29;20298;-84
2022/03/28 01:21:30;;;;;;;1.10;1.08;;;7.90;97.70;;;;;;6166295;29;20298;-84
2022/03/28 01:24:36;;;;;;;1.52;1.15;;;7.90;97.60;;;;;;6165808;29;20310;-84
2022/03/28 01:27:41;;;;;;;1.10;1.10;;;7.90;97.40;;;;;;6165523;29;20302;-84
2022/03/28 01:30:47;;;;;;;1.48;1.48;;;7.90;97.30;;;;;;6148976;29;20275;-84
2022/03/28 01:33:52;;;;;;;1.60;1.50;;;7.90;97.50;;;;;;6149162;29;20298;-84
2022/03/28 01:37:00;;;;;;;1.20;1.20;;;7.80;97.70;;;;;;6166378;29;20274;-84
2022/03/28 01:40:07;;;;;;;1.33;1.33;;;7.80;97.70;;;;;;6149356;29;20480;-84
2022/03/28 01:43:15;;;;;;;1.15;1.15;;;7.80;97.60;;;;;;6165501;29;20573;-84
2022/03/28 01:46:21;;;;;;;1.48;1.20;;;7.80;97.40;;;;;;6165646;29;20270;-84
2022/03/28 01:49:27;;;;;;;1.67;1.35;;;7.90;97.50;;;;;;6165413;28;20302;-84
2022/03/28 01:52:33;;;;;;;1.40;1.30;;;7.80;97.40;;;;;;6148669;29;20291;-84
2022/03/28 01:55:39;;;;;;;2.35;1.50;;;7.80;97.30;;;;;;6165914;29;20271;-84
2022/03/28 01:58:44;;;;;;;1.27;1.27;;;7.90;97.20;;;;;;6165160;29;20298;-84
2022/03/28 02:01:51;;;;;;;1.27;1.27;;;7.80;97.20;;;;;;6165644;29;20294;-84
2022/03/28 02:04:57;;;;;;;1.55;1.50;;;7.80;97.20;;;;;;6164712;29;20293;-84
2022/03/28 02:08:04;;;;;;;1.30;1.30;;;7.90;97.20;;;;;;6164614;28;20299;-84
2022/03/28 02:11:11;;;;;;;2.53;1.33;;;7.80;97.10;;;;;;6165036;28;20283;-84
2022/03/28 02:14:16;;;;;;;1.50;1.40;;;7.80;97.10;;;;;;6147774;29;20484;-84
2022/03/28 02:17:22;;;;;;;1.58;1.48;;;7.80;97.10;;;;;;6164653;28;20274;-84
2022/03/28 02:20:28;;;;;;;1.40;1.40;;;7.90;96.60;;;;;;6164251;28;20447;-84
2022/03/28 02:23:35;;;;;;;2.05;1.50;;;7.90;96.40;;;;;;6164424;28;20290;-84
2022/03/28 02:26:41;;;;;;;1.52;1.52;;;8.00;96.10;;;;;;6164726;29;20274;-84
2022/03/28 02:29:46;;;;;;;6.43;2.25;;;7.90;96.10;;;;;;6147053;29;20303;-84
2022/03/28 02:32:51;;;;;;;1.90;1.80;;;7.90;96.20;;;;;;6163849;28;20301;-84
2022/03/28 02:35:57;;;;;;;2.05;1.75;;;7.90;96.20;;;;;;6164361;29;20446;-84
2022/03/28 02:39:04;;;;;;;2.83;1.52;;;7.80;96.20;;;;;;6164566;29;20302;-84
2022/03/28 02:42:10;;;;;;;1.77;1.63;;;7.80;96.00;;;;;;6147100;29;20275;-83
2022/03/28 02:45:16;;;;;;;1.70;1.60;;;7.80;95.80;;;;;;6164148;29;20279;-84
2022/03/28 02:48:22;;;;;;;1.63;1.63;;;7.80;96.00;;;;;;6163966;29;20306;-84
2022/03/28 02:51:27;;;;;;;1.70;1.70;;;7.80;96.10;;;;;;6164052;29;20278;-84
2022/03/28 02:54:34;;;;;;;1.83;1.73;;;7.80;95.90;;;;;;6163824;29;20290;-84
2022/03/28 02:57:40;;;;;;;1.70;1.60;;;7.80;96.00;;;;;;6131372;29;20298;-84
2022/03/28 03:00:45;;;;;;;2.38;1.77;;;7.70;96.20;;;;;;6163779;29;20355;-84
2022/03/28 03:03:51;;;;;;;1.80;1.70;;;7.70;96.30;;;;;;6161928;28;20302;-84
2022/03/28 03:06:56;;;;;;;3.13;1.75;;;7.70;96.40;;;;;;6164232;29;20271;-84
2022/03/28 03:10:03;;;;;;;1.77;1.73;;;7.70;96.60;;;;;;6146159;29;20281;-84
2022/03/28 03:13:09;;;;;;;2.00;1.90;;;7.60;96.80;;;;;;6146473;29;20293;-84
2022/03/28 03:16:14;;;;;;;1.90;1.70;;;7.60;97.00;;;;;;6164027;29;20339;-84
2022/03/28 03:19:20;;;;;;;2.38;1.67;;;7.50;97.00;;;;;;6163344;29;20298;-84
2022/03/28 03:22:26;;;;;;;1.80;1.70;;;7.50;97.00;;;;;;6163210;29;20298;-84
2022/03/28 03:25:32;;;;;;;1.77;1.75;;;7.50;96.70;;;;;;6163512;29;20307;-84
2022/03/28 03:28:39;;;;;;;2.40;2.20;;;7.60;96.80;;;;;;6163250;29;20505;-84
2022/03/28 03:31:45;;;;;;;1.80;1.80;;;7.60;96.50;;;;;;6164230;28;20573;-84
2022/03/28 03:34:51;;;;;;;1.80;1.75;;;7.60;96.50;;;;;;6168400;29;20302;-84
2022/03/28 03:37:57;;;;;;;5.70;1.85;;;7.50;96.50;;;;;;6167916;29;20585;-84
2022/03/28 03:41:03;;;;;;;1.98;1.98;;;7.60;96.50;;;;;;6151452;29;20277;-84
2022/03/28 03:44:09;;;;;;;1.85;1.80;;;7.50;96.50;;;;;;6168022;28;20301;-84
2022/03/28 03:47:14;;;;;;;2.80;2.00;;;7.50;96.70;;;;;;6167666;28;20270;-84
2022/03/28 03:50:20;;;;;;;2.08;1.98;;;7.50;96.70;;;;;;6151557;29;20287;-84
2022/03/28 03:53:25;;;;;;;2.30;2.13;;;7.50;96.70;;;;;;6167948;28;20309;-84
2022/03/28 03:56:32;;;;;;;5.10;1.85;;;7.40;96.70;;;;;;6151544;29;20459;-84
2022/03/28 03:59:38;;;;;;;1.92;1.83;;;7.50;96.70;;;;;;6167864;29;20315;-84
2022/03/28 04:02:43;;;;;;;5.13;2.10;;;7.50;96.30;;;;;;6167981;29;20589;-84
2022/03/28 04:05:49;;;;;;;4.00;2.00;;;7.50;96.50;;;;;;6167860;29;20294;-84
2022/03/28 04:08:54;;;;;;;2.45;2.10;;;7.40;96.80;;;;;;6150594;29;20565;-85
2022/03/28 04:12:01;;;;;;;2.25;2.15;;;7.40;97.00;;;;;;6167529;29;20267;-83
2022/03/28 04:15:10;;;;;;;3.95;2.22;;;7.40;97.00;;;;;;6167458;29;20282;-84
2022/03/28 04:18:19;;;;;;;3.45;2.30;;;7.40;97.00;;;;;;6166727;29;20495;-84
2022/03/28 04:21:24;;;;;;;2.83;2.63;;;7.30;97.10;;;;;;6167323;28;20274;-84
2022/03/28 04:24:30;;;;;;;2.13;1.92;;;7.40;97.20;;;;;;6150589;29;20302;-84
2022/03/28 04:27:38;;;;;;;4.57;2.38;;;7.40;97.00;;;;;;6167077;28;20554;-84
2022/03/28 04:30:43;;;;;;;4.13;2.42;;;7.40;96.90;;;;;;6167310;29;20290;-84
2022/03/28 04:33:48;;;;;;;2.53;2.42;;;7.40;97.00;;;;;;6166752;28;20330;-84
2022/03/28 04:36:56;;;;;;;2.40;2.30;;;7.30;97.20;;;;;;6150885;29;20275;-83
2022/03/28 04:40:02;;;;;;;3.03;2.55;;;7.30;97.40;;;;;;6166750;29;20278;-83
2022/03/28 04:43:10;;;;;;;2.75;2.40;;;7.30;97.40;;;;;;6166261;28;20298;-83
2022/03/28 04:46:15;;;;;;;2.65;2.42;;;7.30;97.60;;;;;;6134449;29;20298;-84
2022/03/28 04:49:23;;;;;;;2.87;2.60;;;7.20;97.40;;;;;;6166799;29;20298;-83
2022/03/28 04:52:29;;;;;;;2.45;2.30;;;7.30;97.10;;;;;;6149666;29;20290;-83
2022/03/28 04:55:34;;;;;;;2.70;2.50;;;7.30;97.00;;;;;;6166512;29;20282;-83
2022/03/28 04:58:43;;;;;;;3.60;2.60;;;7.40;96.80;;;;;;6166379;29;20299;-86
2022/03/28 05:01:52;;;;;;;2.83;2.55;;;7.30;96.90;;;;;;6149941;29;20274;-85
2022/03/28 05:04:58;;;;;;;6.18;2.35;;;7.30;96.80;;;;;;6166384;29;20295;-85
2022/03/28 05:08:06;;;;;;;3.05;2.85;;;7.30;96.70;;;;;;6133732;29;20310;-85
2022/03/28 05:11:22;;;;;;;2.70;2.50;;;7.30;96.90;;;;;;6151616;29;20465;-84
2022/03/28 05:14:30;;;;;;;2.83;2.63;;;7.40;96.50;;;;;;6165889;28;20323;-85
2022/03/28 05:17:35;;;;;;;3.75;2.80;;;7.50;96.10;;;;;;6148896;28;20294;-85
2022/03/28 05:20:46;;;;;;;3.85;3.05;;;7.40;96.10;;;;;;6135316;29;20274;-85
2022/03/28 05:23:52;;;;;;;4.13;2.63;;;7.60;95.60;;;;;;6111716;29;20303;-85
2022/03/28 05:26:57;;;;;;;3.93;2.60;;;7.60;95.30;;;;;;6142224;29;20291;-84
2022/03/28 05:30:06;;;;;;;3.15;2.95;;;7.60;95.30;;;;;;6124899;29;20279;-85
2022/03/28 05:33:13;;;;;;;5.53;2.67;;;7.60;95.20;;;;;;6125472;29;20311;-83
2022/03/28 05:36:19;;;;;;;3.38;3.00;;;7.70;94.80;;;;;;6142352;29;20281;-84
2022/03/28 05:39:25;;;;;;;2.90;2.70;;;7.60;94.80;;;;;;6141733;29;20299;-83
2022/03/28 05:42:35;;;;;;;9.27;3.05;;;7.70;94.70;;;;;;6124598;29;20471;-83
2022/03/28 05:45:42;;;;;;;3.83;2.90;;;7.70;94.60;;;;;;6141704;29;20299;-85
2022/03/28 05:48:48;;;;;;;2.75;2.55;;;7.70;94.70;;;;;;6141436;29;20351;-78
2022/03/28 05:51:54;;;;;;;7.18;2.97;;;7.70;94.40;;;;;;6141621;29;20275;-81
2022/03/28 05:54:59;;;;;;;8.73;3.53;;;7.70;94.50;;;;;;6141500;29;20302;-83
2022/03/28 05:58:06;;;;;;;4.35;3.15;;;7.70;94.30;;;;;;6140271;29;20315;-88
2022/03/28 06:01:14;;;;;;;2.97;2.78;;;7.80;94.10;;;;;;6141604;29;20266;-89
2022/03/28 06:04:20;;;;;;;5.68;2.90;;;7.80;94.00;;;;;;6108707;29;20303;-88
2022/03/28 06:07:26;;;;;;;3.15;2.80;;;7.80;94.00;;;;;;6124377;29;20298;-83
2022/03/28 06:10:35;;;;;;;5.00;3.15;;;7.80;94.10;;;;;;6141235;29;20285;-82
2022/03/28 06:13:53;;;;;;;6.18;2.97;;;7.90;94.10;;;;;;6125635;29;20303;-82
2022/03/28 06:17:05;;;;;;;5.45;3.40;;;7.90;93.60;;;;;;6127084;29;20299;-85
2022/03/28 06:20:12;;;;;;;3.17;3.00;;;8.00;93.50;;;;;;6126916;29;20280;-86
2022/03/28 06:23:17;;;;;;;7.25;3.15;;;8.00;93.80;;;;;;6122038;29;20500;-86
2022/03/28 06:26:23;;;;;;;3.65;2.90;;;8.00;93.70;;;;;;6109354;29;20303;-86
2022/03/28 06:29:29;;;;;;;5.45;3.40;;;8.00;93.30;;;;;;6120613;29;20304;-84
2022/03/28 06:32:36;;;;;;;4.55;3.00;;;8.10;93.30;;;;;;6126335;29;20294;-83
2022/03/28 06:35:41;;;;;;;7.30;3.25;;;8.20;92.70;;;;;;6164572;29;20464;-85
2022/03/28 06:38:47;;;;;;;4.75;3.33;;;8.20;92.60;;;;;;6147129;29;20491;-83
2022/03/28 06:41:52;;;;;;;3.20;3.10;;;8.30;92.70;;;;;;6164330;29;20282;-85
2022/03/28 06:44:58;;;;;;;3.88;3.58;;;8.40;92.30;;;;;;6164226;29;20306;-84
2022/03/28 06:48:06;;;;;;;7.18;3.40;;;8.50;92.10;;;;;;6163510;29;20319;-84
2022/03/28 06:51:32;;;;;;;3.70;3.10;;;8.60;92.00;;;;;;6164689;29;20274;-84
2022/03/28 06:54:38;;;;;;;4.03;3.40;;;8.70;91.40;;;;;;6164228;29;20295;-83
2022/03/28 06:57:44;;;;;;;4.63;3.20;;;8.80;91.00;;;;;;6163664;29;20307;-83
2022/03/28 07:00:50;;;;;;;5.32;3.50;;;8.80;91.10;;;;;;6164385;28;20279;-83
2022/03/28 07:03:57;;;;;;;3.58;3.13;;;8.80;90.90;;;;;;6163597;29;20289;-83
2022/03/28 07:07:03;;;;;;;3.50;3.20;;;8.80;90.70;;;;;;6146121;29;20298;-82
2022/03/28 07:10:11;;;;;;;5.90;3.60;;;8.90;90.40;;;;;;6163718;29;20274;-83
2022/03/28 07:13:17;;;;;;;3.83;3.53;;;8.90;90.50;;;;;;6163742;29;20306;-83
2022/03/28 07:16:22;;;;;;;10.88;4.25;;;8.80;90.90;;;;;;6163902;29;20283;-83
2022/03/28 07:19:30;;;;;;;3.92;3.40;;;8.90;90.20;;;;;;6146638;29;20447;-84
2022/03/28 07:22:36;;;;;;;18.65;4.60;;;8.90;90.40;;;;;;6164205;29;20478;-82
2022/03/28 07:25:41;;;;;;;6.60;4.07;;;8.90;90.00;;;;;;6163790;29;20282;-83
2022/03/28 07:28:47;;;;;;;7.07;3.92;;;8.90;90.30;;;;;;6163291;29;20294;-83
2022/03/28 07:31:54;;;;;;;4.15;3.50;;;8.90;89.80;;;;;;6146568;29;20274;-83
2022/03/28 07:35:00;;;;;;;6.93;4.15;;;9.00;89.40;;;;;;6163274;29;20471;-83
2022/03/28 07:38:08;;;;;;;4.40;3.72;;;8.90;89.60;;;;;;6163225;29;20306;-83
2022/03/28 07:41:14;;;;;;;4.07;3.70;;;9.00;89.70;;;;;;6163992;29;20274;-83
2022/03/28 07:44:20;;;;;;;5.10;3.40;;;8.90;89.50;;;;;;6146209;29;20605;-83
2022/03/28 07:47:26;;;;;;;6.80;3.85;;;8.90;90.60;;;;;;6162785;29;20302;-83
2022/03/28 07:50:34;;;;;;;3.97;3.58;;;8.90;90.30;;;;;;6163241;29;20274;-83
2022/03/28 07:53:40;;;;;;;5.43;4.53;;;8.90;90.20;;;;;;6163164;29;20453;-83
2022/03/28 07:56:46;;;;;;;4.63;4.30;;;9.00;89.40;;;;;;6164028;29;20274;-83
2022/03/28 07:59:51;;;;;;;5.57;4.18;;;9.00;87.70;;;;;;6162075;28;20384;-85
2022/03/28 08:03:19;;;;;;;5.75;4.07;;;9.00;87.70;;;;;;6149574;29;20298;-83
2022/03/28 08:06:27;;;;;;;8.63;4.13;;;9.00;87.20;;;;;;6146413;29;20278;-84
2022/03/28 08:09:34;;;;;;;6.20;4.22;;;9.00;88.00;;;;;;6145869;29;20593;-84
2022/03/28 08:12:41;;;;;;;11.10;4.13;;;9.00;86.30;;;;;;6163431;29;20294;-84
2022/03/28 08:15:46;;;;;;;5.53;4.10;;;9.10;86.60;;;;;;6163140;29;20274;-84
2022/03/28 08:18:52;;;;;;;5.07;4.13;;;9.10;86.60;;;;;;6165209;28;20303;-84
2022/03/28 08:21:59;;;;;;;7.00;4.00;;;9.10;86.70;;;;;;6167870;29;20581;-84
2022/03/28 08:25:05;;;;;;;5.40;4.10;;;9.10;86.30;;;;;;6166708;29;20279;-84
2022/03/28 08:28:13;;;;;;;11.38;4.38;;;9.20;86.60;;;;;;6165986;29;20302;-84
2022/03/28 08:31:19;;;;;;;5.18;4.22;;;9.10;87.70;;;;;;6167265;29;20573;-84
2022/03/28 08:34:25;;;;;;;4.60;4.07;;;9.10;87.80;;;;;;6149541;29;20298;-84
2022/03/28 08:37:33;;;;;;;6.10;4.03;;;9.20;87.20;;;;;;6167033;29;20298;-84
2022/03/28 08:40:38;;;;;;;5.15;4.20;;;9.20;86.60;;;;;;6150038;29;20294;-82
2022/03/28 08:43:44;;;;;;;5.80;4.43;;;9.20;87.00;;;;;;6133714;29;20295;-81
2022/03/28 08:46:50;;;;;;;5.60;4.25;;;9.30;86.90;;;;;;6166841;29;20278;-85
2022/03/28 08:49:55;;;;;;;4.82;4.45;;;9.30;83.90;;;;;;6166540;29;20302;-85
2022/03/28 08:53:04;;;;;;;4.47;4.07;;;9.30;85.90;;;;;;6166257;29;20291;-84
2022/03/28 08:56:13;;;;;;;7.28;4.10;;;9.30;84.30;;;;;;6149335;29;20275;-85
2022/03/28 08:59:38;;;;;;;5.15;4.22;;;9.40;84.20;;;;;;6166918;29;20377;-84
2022/03/28 09:02:46;;;;;;;7.35;4.10;;;9.40;84.20;;;;;;6166141;29;20542;-84
2022/03/28 09:05:51;;;;;;;7.10;3.92;;;9.50;84.00;;;;;;6166803;29;20561;-83
2022/03/28 09:09:12;;;;;;;4.70;4.03;;;9.50;84.70;;;;;;6166393;29;20306;-83
2022/03/28 09:12:19;;;;;;;8.68;4.53;;;9.50;83.30;;;;;;6166321;29;20267;-84
2022/03/28 09:15:29;;;;;;;7.38;3.75;;;9.50;82.70;;;;;;6165575;29;20278;-84
2022/03/28 09:18:36;;;;;;;7.03;4.05;;;9.50;82.80;;;;;;6166624;28;20485;-84
2022/03/28 09:21:51;;;;;;;6.93;4.55;;;9.60;83.30;;;;;;6166227;29;20302;-84
2022/03/28 09:25:03;;;;;;;9.63;4.50;;;9.50;83.30;;;;;;6166403;29;20294;-84
2022/03/28 09:28:10;;;;;;;7.32;4.03;;;9.50;82.50;;;;;;6149280;29;20585;-84
2022/03/28 09:31:25;;;;;;;10.20;4.32;;;9.50;82.10;;;;;;6148447;29;20561;-84
2022/03/28 09:34:32;;;;;;;6.38;4.20;;;9.40;83.50;;;;;;6165883;29;20291;-84
2022/03/28 09:38:01;;;;;;;7.63;4.38;;;9.40;83.40;;;;;;6165657;29;20302;-84
2022/03/28 09:41:13;;;;;;;7.97;3.92;;;9.40;84.10;;;;;;6165624;29;20279;-84
2022/03/28 09:44:34;;;;;;;3.90;3.60;;;9.30;83.90;;;;;;6148777;29;20601;-84
2022/03/28 09:47:56;;;;;;;4.38;3.97;;;9.30;85.00;;;;;;6164983;29;20475;-84
2022/03/28 09:51:04;;;;;;;4.82;4.25;;;9.30;83.90;;;;;;6166027;29;20274;-83
2022/03/28 09:54:25;;;;;;;7.30;4.35;;;9.30;85.20;;;;;;6165084;29;20302;-82
2022/03/28 09:57:33;;;;;;;4.50;3.78;;;9.20;86.20;;;;;;6165142;29;20290;-82
2022/03/28 10:00:49;;;;;;;5.68;3.80;;;9.20;85.50;;;;;;6164629;29;20304;-84
2022/03/28 10:03:59;;;;;;;4.45;3.85;;;9.20;86.60;;;;;;6164715;29;20294;-83
2022/03/28 10:07:05;;;;;;;4.55;3.90;;;9.10;87.30;;;;;;6164567;29;20466;-85
2022/03/28 10:10:11;;;;;;;7.85;3.90;;;9.10;86.90;;;;;;6165006;29;20290;-84
2022/03/28 10:13:19;;;;;;;4.18;3.60;;;9.10;86.40;;;;;;6147868;29;20305;-83
2022/03/28 10:16:25;;;;;;;4.20;3.80;;;9.10;82.70;;;;;;6164885;29;20468;-83
2022/03/28 10:19:32;;;;;;;7.00;3.85;;;9.20;80.00;;;;;;6165074;29;20310;-85
2022/03/28 10:22:43;;;;;;;7.15;3.35;;;9.20;77.70;;;;;;6164111;29;20322;-84
2022/03/28 10:25:49;;;;;;;5.15;3.65;;;9.30;77.10;;;;;;6164968;29;20278;-84
2022/03/28 10:29:07;;;;;;;4.00;3.08;;;9.50;74.80;;;;;;6164344;28;20323;-85
2022/03/28 10:32:16;;;;;;;11.45;3.95;;;9.70;74.10;;;;;;6164249;29;20278;-85
2022/03/28 10:35:24;;;;;;;3.63;3.38;;;9.70;75.00;;;;;;6164238;29;20579;-87
2022/03/28 10:38:29;;;;;;;2.88;2.75;;;9.60;70.00;;;;;;6163932;29;20290;-85
2022/03/28 10:41:42;;;;;;;2.95;2.80;;;9.70;68.30;;;;;;6163866;28;20279;-85
2022/03/28 10:45:01;;;;;;;3.03;2.60;;;9.80;64.10;;;;;;6164346;29;20310;-86
2022/03/28 10:48:09;;;;;;;2.83;2.60;;;9.90;62.70;;;;;;6164081;29;20299;-84
2022/03/28 10:51:18;;;;;;;2.70;2.50;;;10.00;59.70;;;;;;6164529;29;20294;-85
2022/03/28 10:54:23;;;;;;;3.70;2.50;;;10.10;57.40;;;;;;6163784;29;20298;-85
2022/03/28 10:57:29;;;;;;;3.92;2.20;;;10.00;56.10;;;;;;6146760;28;20298;-85
2022/03/28 11:00:36;;;;;;;5.82;2.40;;;10.10;54.70;;;;;;6163887;29;20279;-84
2022/03/28 11:03:44;;;;;;;2.75;1.50;;;10.20;52.70;;;;;;6163891;29;20290;-84
2022/03/28 11:07:02;;;;;;;4.60;1.55;;;10.10;50.40;;;;;;6164054;29;20274;-85
2022/03/28 11:10:13;;;;;;;10.32;1.20;;;10.20;47.20;;;;;;6163840;29;20295;-85
2022/03/28 11:13:19;;;;;;;4.28;1.00;;;10.30;44.90;;;;;;6163852;29;20474;-85
2022/03/28 11:16:43;;;;;;;5.85;1.20;;;10.40;42.50;;;;;;6164019;29;20277;-85
2022/03/28 11:20:09;;;;;;;6.28;1.40;;;10.60;40.90;;;;;;6163404;29;20332;-85
2022/03/28 11:23:18;;;;;;;11.93;1.65;;;10.60;41.80;;;;;;6163764;29;20306;-85
2022/03/28 11:26:24;;;;;;;2.83;0.90;;;10.70;40.10;;;;;;6147261;29;20278;-85
2022/03/28 11:29:29;;;;;;;1.92;1.20;;;10.70;40.50;;;;;;6164055;29;20318;-85
2022/03/28 11:32:37;;;;;;;2.25;0.82;;;10.80;41.00;;;;;;6163943;29;20294;-85
2022/03/28 11:35:56;;;;;;;10.80;1.00;;;10.80;40.70;;;;;;6164407;29;20275;-85
2022/03/28 11:39:04;;;;;;;3.85;0.85;;;10.70;41.30;;;;;;6163873;29;20610;-85
2022/03/28 11:42:11;;;;;;;7.03;1.00;;;10.80;40.80;;;;;;6146867;29;20298;-85
2022/03/28 11:45:19;;;;;;;0.93;0.80;;;10.70;40.80;;;;;;6165236;29;20278;-82
2022/03/28 11:48:29;;;;;;;4.22;0.80;;;10.80;40.50;;;;;;6146912;29;20645;-84
2022/03/28 11:51:36;;;;;;;7.75;0.90;;;10.80;40.50;;;;;;6164664;29;20294;-85
2022/03/28 11:54:42;;;;;;;1.45;0.88;;;10.80;41.10;;;;;;6168094;28;20303;-85
2022/03/28 12:01:13;;;;;;;5.47;0.80;;;11.10;38.90;;;;;;6169452;29;20270;-84
2022/03/28 12:04:21;;;;;;;3.97;0.80;;;10.90;39.00;;;;;;6172015;29;20624;-85
2022/03/28 12:07:34;;;;;;;6.57;0.93;;;10.90;38.20;;;;;;6171834;29;20447;-83
2022/03/28 12:10:42;;;;;;;7.30;0.70;;;10.90;38.40;;;;;;6169075;29;20287;-85
2022/03/28 12:13:49;;;;;;;13.80;1.77;;;10.90;38.60;;;;;;6168402;28;20295;-84
2022/03/28 12:16:57;;;;;;;9.10;1.10;;;10.90;39.00;;;;;;6169361;29;20566;-85
2022/03/28 12:20:06;;;;;;;5.20;1.02;;;10.90;37.50;;;;;;6168320;29;20286;-84
2022/03/28 12:23:15;;;;;;;3.53;0.70;;;11.00;36.70;;;;;;6151709;29;20307;-83
2022/03/28 12:26:21;;;;;;;3.53;0.80;;;11.00;37.20;;;;;;6168765;29;20266;-84
2022/03/28 12:29:32;;;;;;;9.55;1.35;;;11.10;36.30;;;;;;6167881;29;20295;-84
2022/03/28 12:32:38;;;;;;;4.47;0.70;;;11.00;37.20;;;;;;6167702;29;20299;-84
2022/03/28 12:35:48;;;;;;;2.53;0.93;;;11.00;36.60;;;;;;6151097;29;20310;-84
2022/03/28 12:39:00;;;;;;;2.15;0.70;;;11.10;36.50;;;;;;6167776;29;20290;-84
2022/03/28 12:42:06;;;;;;;1.58;0.98;;;11.10;37.70;;;;;;6167703;28;20295;-85
2022/03/28 12:45:13;;;;;;;10.30;0.98;;;11.10;37.40;;;;;;6168353;29;20464;-84
2022/03/28 12:48:20;;;;;;;2.80;0.90;;;11.10;36.90;;;;;;6167518;29;20302;-84
2022/03/28 12:51:30;;;;;;;5.55;1.40;;;11.10;35.40;;;;;;6168260;29;20294;-86
2022/03/28 12:54:38;;;;;;;9.73;0.90;;;11.10;35.50;;;;;;6166940;29;20322;-87
2022/03/28 12:57:52;;;;;;;2.38;0.80;;;11.00;35.20;;;;;;6167024;28;20291;-86
2022/03/28 13:01:05;;;;;;;4.22;0.90;;;11.00;35.70;;;;;;6166957;29;20271;-86
2022/03/28 13:04:13;;;;;;;5.20;0.73;;;11.10;36.10;;;;;;6165835;28;20295;-86
2022/03/28 13:07:22;;;;;;;4.53;0.70;;;11.00;36.30;;;;;;6166636;29;20279;-86
2022/03/28 13:10:28;;;;;;;4.45;0.75;;;11.00;37.40;;;;;;6167230;29;20251;-86
2022/03/28 13:13:38;;;;;;;3.42;1.30;;;11.20;36.50;;;;;;6166706;29;20303;-87
2022/03/28 13:16:43;;;;;;;2.17;0.60;;;11.40;36.60;;;;;;6167140;29;20295;-86
2022/03/28 13:19:57;;;;;;;2.30;0.85;;;11.40;37.70;;;;;;6166077;29;20298;-86
2022/03/28 13:23:05;;;;;;;5.93;0.70;;;11.40;36.20;;;;;;6166291;29;20302;-86
2022/03/28 13:26:15;;;;;;;6.22;0.82;;;11.40;35.50;;;;;;6166429;29;20274;-86
2022/03/28 13:29:27;;;;;;;2.35;0.70;;;11.30;35.50;;;;;;6166198;29;20597;-86
2022/03/28 13:32:35;;;;;;;3.85;0.80;;;11.40;36.30;;;;;;6149250;29;20302;-87
2022/03/28 13:35:42;;;;;;;3.13;0.70;;;11.40;35.40;;;;;;6149347;29;20278;-86
2022/03/28 13:38:50;;;;;;;6.03;0.82;;;11.40;36.30;;;;;;6166084;29;20481;-87
2022/03/28 13:41:56;;;;;;;11.07;1.45;;;11.40;36.20;;;;;;6166602;29;20319;-87
2022/03/28 13:45:03;;;;;;;2.92;0.80;;;11.50;35.20;;;;;;6165328;29;20278;-87
2022/03/28 13:48:15;;;;;;;2.17;0.75;;;11.50;35.70;;;;;;6149645;29;20290;-88
2022/03/28 13:51:20;;;;;;;48.90;3.22;;;11.60;35.60;;;;;;6166060;29;20294;-90
2022/03/28 13:54:34;;;;;;;13.05;1.10;;;11.60;36.40;;;;;;6150576;29;20298;-91
2022/03/28 13:57:40;;;;;;;2.30;0.90;;;11.40;35.30;;;;;;6149730;29;20295;-91
2022/03/28 14:00:49;;;;;;;9.48;0.88;;;11.50;36.60;;;;;;6167020;29;20278;-91
2022/03/28 14:03:57;;;;;;;7.85;1.45;;;11.40;36.80;;;;;;6133653;29;20496;-92
2022/03/28 14:07:03;;;;;;;1.98;0.63;;;11.20;37.50;;;;;;6149624;29;20603;-90
2022/03/28 14:10:13;;;;;;;1.30;0.85;;;11.10;37.40;;;;;;6149824;29;20291;-91
2022/03/28 14:13:19;;;;;;;2.10;0.88;;;11.20;36.90;;;;;;6165980;29;20302;-92
2022/03/28 14:16:25;;;;;;;5.97;0.80;;;11.20;36.50;;;;;;6166128;28;20279;-92
2022/03/28 14:19:30;;;;;;;19.00;1.75;;;11.10;36.60;;;;;;6132853;29;20303;-92
2022/03/28 14:22:36;;;;;;;4.00;0.77;;;10.90;35.60;;;;;;6134006;29;20294;-92
2022/03/28 14:25:44;;;;;;;13.05;1.00;;;10.80;35.80;;;;;;6166795;29;20287;-90
2022/03/28 14:28:50;;;;;;;7.50;1.17;;;10.70;35.40;;;;;;6132367;29;20302;-91
2022/03/28 14:31:59;;;;;;;20.58;2.17;;;10.60;35.60;;;;;;6149589;29;20593;-91
2022/03/28 14:35:06;;;;;;;9.45;2.17;;;10.50;36.00;;;;;;6171872;28;20280;-89
2022/03/28 14:38:14;;;;;;;10.07;1.42;;;10.50;36.20;;;;;;6173273;28;20302;-90
2022/03/28 14:41:22;;;;;;;7.28;0.70;;;10.40;36.40;;;;;;6191082;28;20278;-91
2022/03/28 14:44:27;;;;;;;4.72;0.80;;;10.40;37.10;;;;;;6172561;28;20304;-90
2022/03/28 14:47:35;;;;;;;4.32;0.50;;;10.40;37.10;;;;;;6156220;28;20285;-92
2022/03/28 14:50:41;;;;;;;10.35;1.40;;;10.40;37.50;;;;;;6157359;28;20273;-91
2022/03/28 14:53:48;;;;;;;1.75;0.70;;;10.40;37.30;;;;;;6171636;28;20302;-90
2022/03/28 14:56:55;;;;;;;9.02;0.90;;;10.40;37.60;;;;;;6171716;28;20278;-90
2022/03/28 15:00:00;;;;;;;1.20;0.60;;;10.40;38.40;;;;;;6171701;28;20486;-91
2022/03/28 15:03:07;;;;;;;2.75;0.70;;;10.30;38.60;;;;;;6188569;28;20297;-91
2022/03/28 15:06:14;;;;;;;20.88;1.58;;;10.20;39.40;;;;;;6156498;28;20282;-85
2022/03/28 15:09:21;;;;;;;9.80;1.20;;;9.90;38.00;;;;;;6170771;28;20294;-86
2022/03/28 15:12:29;;;;;;;7.65;1.17;;;9.70;38.50;;;;;;6138098;29;20299;-86
2022/03/28 15:15:34;;;;;;;16.15;0.77;;;9.70;39.30;;;;;;6140361;29;20275;-84
2022/03/28 15:18:41;;;;;;;7.10;1.13;;;9.50;40.60;;;;;;6138185;29;20303;-85
2022/03/28 15:21:47;;;;;;;7.20;0.75;;;9.50;41.50;;;;;;6135609;29;20303;-87
2022/03/28 15:24:52;;;;;;;2.45;0.80;;;9.30;42.50;;;;;;6116219;29;20307;-87
2022/03/28 15:28:00;;;;;;;4.90;0.80;;;9.30;42.80;;;;;;6115691;29;20351;-87
2022/03/28 15:31:27;;;;;;;1.80;1.70;;;9.20;44.00;;;;;;6116836;29;20275;-87
2022/03/28 15:34:32;;;;;;;1.98;0.60;;;9.10;43.70;;;;;;6114612;29;20307;-87
2022/03/28 15:37:38;;;;;;;2.50;0.73;;;9.00;44.40;;;;;;6116019;29;20494;-87
2022/03/28 15:40:44;;;;;;;1.83;0.70;;;9.00;44.50;;;;;;6099907;29;20462;-87
2022/03/28 15:43:51;;;;;;;2.70;0.70;;;8.90;44.40;;;;;;6115869;29;20303;-87
2022/03/28 15:46:57;;;;;;;3.13;0.60;;;8.90;44.70;;;;;;6099240;29;20332;-86
2022/03/28 15:50:14;;;;;;;1.77;0.80;;;8.90;44.60;;;;;;6115400;29;20280;-87
2022/03/28 15:53:21;;;;;;;2.25;1.00;;;8.90;44.90;;;;;;6099641;29;20305;-87
2022/03/28 15:56:26;;;;;;;1.73;0.70;;;9.00;44.70;;;;;;6116243;29;20275;-86
2022/03/28 15:59:39;;;;;;;0.70;0.70;;;8.90;44.30;;;;;;6101182;29;20296;-87
2022/03/28 16:02:45;;;;;;;1.20;1.10;;;8.90;44.90;;;;;;6098872;29;20287;-87
2022/03/28 16:05:50;;;;;;;4.82;0.80;;;8.80;42.70;;;;;;6115847;29;20458;-86
2022/03/28 16:08:56;;;;;;;6.53;1.00;;;8.80;41.90;;;;;;6098727;29;20405;-87
2022/03/28 16:12:02;;;;;;;8.10;0.98;;;8.80;41.30;;;;;;6136563;29;20267;-87
2022/03/28 16:15:10;;;;;;;5.40;1.00;;;8.60;41.50;;;;;;6139504;29;20299;-87
2022/03/28 16:18:20;;;;;;;2.10;1.00;;;8.50;41.90;;;;;;6139388;29;20299;-87
2022/03/28 16:21:28;;;;;;;3.17;0.88;;;8.50;42.10;;;;;;6124202;29;20558;-87
2022/03/28 16:24:33;;;;;;;2.28;0.80;;;8.40;42.20;;;;;;6162965;29;20331;-85
2022/03/28 16:27:43;;;;;;;2.80;0.68;;;8.30;42.50;;;;;;6162312;29;20577;-86